Time;durP1;ratioP1;P1;durP2;ratioP2;P2;SDS_P1;SDS_P2;PMS_P1;PMS_P2;Temp;Humidity;BMP_temperature;BMP_pressure;BME280_temperature;BME280_humidity;BME280_pressure;Samples;Min_cycle;Max_cycle;Signal;HPM_P1;HPM_P2
2023/01/25 00:00:12;;;;;;;0.60;0.60;;;21.60;60.70;;;;;;6213110;23;20082;-70
2023/01/25 00:02:37;;;;;;;0.70;0.70;;;21.70;60.70;;;;;;6214488;23;20005;-70
2023/01/25 00:05:03;;;;;;;0.77;0.77;;;21.70;60.70;;;;;;6214081;23;20009;-70
2023/01/25 00:07:29;;;;;;;1.00;0.90;;;21.70;60.60;;;;;;6214715;23;20067;-70
2023/01/25 00:09:54;;;;;;;0.70;0.70;;;21.70;60.60;;;;;;6214582;23;20029;-70
2023/01/25 00:12:20;;;;;;;0.80;0.80;;;21.70;60.50;;;;;;6214408;23;20000;-68
2023/01/25 00:14:46;;;;;;;1.00;0.70;;;21.70;60.60;;;;;;6213712;23;20425;-70
2023/01/25 00:17:11;;;;;;;0.60;0.60;;;21.70;60.70;;;;;;6214100;23;20004;-70
2023/01/25 00:19:37;;;;;;;0.80;0.80;;;21.70;60.70;;;;;;6214347;23;20346;-70
2023/01/25 00:22:03;;;;;;;0.70;0.70;;;21.60;60.70;;;;;;6214432;23;20008;-70
2023/01/25 00:24:28;;;;;;;0.60;0.60;;;21.60;60.90;;;;;;6213577;23;20013;-70
2023/01/25 00:26:54;;;;;;;0.95;0.70;;;21.50;61.00;;;;;;6214213;23;20000;-70
2023/01/25 00:29:19;;;;;;;1.00;0.80;;;21.40;61.10;;;;;;6212892;23;20000;-70
2023/01/25 00:32:06;;;;;;;1.65;0.80;;;21.30;61.30;;;;;;6214429;23;20000;-70
2023/01/25 00:34:48;;;;;;;1.10;0.80;;;21.20;61.50;;;;;;6212810;23;20009;-70
2023/01/25 00:37:13;;;;;;;1.60;1.20;;;21.10;61.90;;;;;;6187816;23;20000;-70
2023/01/25 00:39:39;;;;;;;2.47;0.90;;;21.00;60.90;;;;;;6214442;23;20007;-70
2023/01/25 00:42:10;;;;;;;2.60;1.10;;;20.90;61.00;;;;;;6213786;23;20001;-70
2023/01/25 00:44:37;;;;;;;1.33;0.90;;;20.90;61.60;;;;;;6190825;23;20023;-70
2023/01/25 00:47:04;;;;;;;1.00;0.90;;;20.80;61.80;;;;;;6214902;23;20467;-70
2023/01/25 00:49:30;;;;;;;2.28;0.90;;;20.80;62.10;;;;;;6216191;23;20004;-70
2023/01/25 00:51:56;;;;;;;1.70;0.80;;;20.70;62.40;;;;;;6190092;23;20048;-70
2023/01/25 00:54:22;;;;;;;1.02;0.95;;;20.60;62.50;;;;;;6214947;23;20429;-70
2023/01/25 00:56:48;;;;;;;0.77;0.77;;;20.50;62.60;;;;;;6216633;23;20445;-70
2023/01/25 00:59:13;;;;;;;1.05;0.90;;;20.40;62.80;;;;;;6215965;23;20341;-70
2023/01/25 01:01:42;;;;;;;0.98;0.82;;;20.40;63.00;;;;;;6214918;23;20001;-70
2023/01/25 01:04:08;;;;;;;1.60;0.95;;;20.30;63.30;;;;;;6216018;23;20007;-70
2023/01/25 01:06:40;;;;;;;0.90;0.90;;;20.20;63.40;;;;;;6214689;23;20001;-70
2023/01/25 01:09:07;;;;;;;1.08;1.00;;;20.10;63.50;;;;;;6214697;23;20000;-70
2023/01/25 01:11:32;;;;;;;0.95;0.93;;;20.10;63.60;;;;;;6214857;23;20087;-70
2023/01/25 01:13:58;;;;;;;1.00;0.90;;;20.00;63.80;;;;;;6216121;23;20028;-70
2023/01/25 01:16:24;;;;;;;1.70;1.02;;;20.00;64.00;;;;;;6214645;23;20008;-70
2023/01/25 01:18:49;;;;;;;1.10;1.10;;;19.90;64.00;;;;;;6214380;23;20453;-70
2023/01/25 01:21:15;;;;;;;1.65;1.00;;;19.90;64.10;;;;;;6215922;23;20050;-70
2023/01/25 01:23:41;;;;;;;0.85;0.85;;;19.80;64.20;;;;;;6214455;23;20013;-70
2023/01/25 01:26:08;;;;;;;1.08;1.02;;;19.70;64.40;;;;;;6214674;23;20393;-70
2023/01/25 01:28:34;;;;;;;0.82;0.82;;;19.70;64.50;;;;;;6214526;23;20063;-70
2023/01/25 01:31:07;;;;;;;1.00;1.00;;;19.60;64.60;;;;;;6215653;23;20388;-70
2023/01/25 01:33:33;;;;;;;1.00;1.00;;;19.50;64.80;;;;;;6216235;23;20007;-70
2023/01/25 01:35:58;;;;;;;1.38;0.93;;;19.50;64.90;;;;;;6214541;23;20000;-70
2023/01/25 01:38:24;;;;;;;0.80;0.80;;;19.40;65.10;;;;;;6214322;23;20004;-70
2023/01/25 01:40:49;;;;;;;1.15;1.05;;;19.30;65.00;;;;;;6214432;23;20035;-70
2023/01/25 01:43:20;;;;;;;0.80;0.80;;;19.30;65.20;;;;;;6214395;23;19997;-70
2023/01/25 01:45:46;;;;;;;1.52;1.00;;;19.20;65.30;;;;;;6214347;23;20451;-70
2023/01/25 01:48:15;;;;;;;1.17;1.10;;;19.20;65.50;;;;;;6216161;23;20004;-70
2023/01/25 01:50:41;;;;;;;1.10;0.95;;;19.10;65.60;;;;;;6214395;23;20005;-70
2023/01/25 01:53:06;;;;;;;1.52;0.90;;;19.10;65.70;;;;;;6188856;23;20134;-70
2023/01/25 01:55:32;;;;;;;1.23;1.13;;;19.00;65.70;;;;;;6216015;23;20028;-70
2023/01/25 01:57:58;;;;;;;1.52;1.17;;;18.90;65.70;;;;;;6189339;23;20057;-70
2023/01/25 02:00:34;;;;;;;1.33;1.10;;;18.90;65.80;;;;;;6213910;23;20075;-70
2023/01/25 02:02:59;;;;;;;1.20;1.10;;;18.80;65.80;;;;;;6214412;23;19997;-70
2023/01/25 02:05:31;;;;;;;0.98;0.93;;;18.80;65.90;;;;;;6214277;23;20051;-70
2023/01/25 02:07:57;;;;;;;1.20;1.05;;;18.70;65.90;;;;;;6190205;23;20004;-70
2023/01/25 02:10:23;;;;;;;0.90;0.90;;;18.70;65.90;;;;;;6189064;23;20004;-70
2023/01/25 02:12:49;;;;;;;1.40;1.30;;;18.70;66.00;;;;;;6189240;23;20001;-70
2023/01/25 02:15:14;;;;;;;0.90;0.90;;;18.60;66.10;;;;;;6188885;23;20307;-70
2023/01/25 02:17:40;;;;;;;1.02;1.02;;;18.60;66.00;;;;;;6215672;23;19997;-70
2023/01/25 02:20:28;;;;;;;1.10;1.00;;;18.50;66.20;;;;;;6189095;23;20079;-70
2023/01/25 02:23:26;;;;;;;0.98;0.98;;;18.50;66.00;;;;;;6191436;23;20341;-70
2023/01/25 02:25:52;;;;;;;1.05;1.05;;;18.50;66.20;;;;;;6214089;23;20055;-69
2023/01/25 02:28:30;;;;;;;2.17;1.00;;;18.40;66.20;;;;;;6189087;23;20050;-70
2023/01/25 02:30:56;;;;;;;1.23;1.13;;;18.40;66.20;;;;;;6213965;23;20059;-70
2023/01/25 02:33:23;;;;;;;1.17;1.08;;;18.30;67.60;;;;;;6215179;23;20384;-70
2023/01/25 02:35:55;;;;;;;1.17;1.00;;;18.30;66.60;;;;;;6215308;23;20011;-70
2023/01/25 02:38:20;;;;;;;1.70;0.90;;;18.20;66.60;;;;;;6213845;23;20001;-70
2023/01/25 02:40:59;;;;;;;1.30;1.10;;;18.20;66.80;;;;;;6214110;23;20001;-70
2023/01/25 02:43:27;;;;;;;1.20;1.10;;;18.20;66.90;;;;;;6213828;23;20001;-70
2023/01/25 02:45:57;;;;;;;1.33;1.15;;;18.10;68.10;;;;;;6188746;23;20512;-70
2023/01/25 02:48:22;;;;;;;1.00;1.00;;;18.10;66.90;;;;;;6213652;23;20009;-70
2023/01/25 02:50:48;;;;;;;0.90;0.90;;;18.00;67.00;;;;;;6215409;23;20445;-70
2023/01/25 02:53:14;;;;;;;1.10;1.10;;;18.00;67.10;;;;;;6213577;23;20011;-70
2023/01/25 02:55:39;;;;;;;1.27;1.17;;;18.00;67.20;;;;;;6213895;23;20007;-70
2023/01/25 02:58:05;;;;;;;0.95;0.95;;;17.90;67.20;;;;;;6214643;23;20004;-70
2023/01/25 03:00:30;;;;;;;1.10;1.00;;;17.90;67.40;;;;;;6213555;23;20046;-70
2023/01/25 03:02:56;;;;;;;1.10;1.00;;;17.90;67.40;;;;;;6213833;23;20047;-70
2023/01/25 03:05:22;;;;;;;1.50;1.40;;;17.80;67.40;;;;;;6214462;23;20007;-70
2023/01/25 03:07:48;;;;;;;1.00;1.00;;;17.80;67.50;;;;;;6215139;23;20008;-70
2023/01/25 03:10:14;;;;;;;1.00;1.00;;;17.80;67.60;;;;;;6214970;23;20005;-70
2023/01/25 03:12:39;;;;;;;1.08;1.08;;;17.70;67.60;;;;;;6214547;23;20000;-70
2023/01/25 03:15:06;;;;;;;1.00;1.00;;;17.70;67.70;;;;;;6215093;23;20000;-70
2023/01/25 03:17:32;;;;;;;1.30;1.20;;;17.70;67.70;;;;;;6214919;23;20015;-70
2023/01/25 03:19:57;;;;;;;2.05;1.10;;;17.70;67.90;;;;;;6213435;23;20008;-70
2023/01/25 03:22:23;;;;;;;1.95;1.15;;;17.60;67.90;;;;;;6214765;23;20024;-70
2023/01/25 03:24:49;;;;;;;1.50;1.40;;;17.60;68.00;;;;;;6214705;23;20516;-70
2023/01/25 03:27:16;;;;;;;1.02;1.00;;;17.60;68.00;;;;;;6213133;23;20001;-70
2023/01/25 03:29:41;;;;;;;1.67;1.30;;;17.50;68.20;;;;;;6213476;23;20436;-70
2023/01/25 03:32:07;;;;;;;1.00;1.00;;;17.50;68.10;;;;;;6188544;23;20027;-70
2023/01/25 03:34:33;;;;;;;1.38;1.30;;;17.50;68.30;;;;;;6213230;23;20014;-70
2023/01/25 03:36:58;;;;;;;1.10;1.10;;;17.40;68.30;;;;;;6213372;23;20000;-70
2023/01/25 03:39:24;;;;;;;1.13;1.10;;;17.40;68.40;;;;;;6213074;23;20411;-70
2023/01/25 03:41:49;;;;;;;1.40;1.30;;;17.40;68.40;;;;;;6213140;23;20068;-70
2023/01/25 03:44:15;;;;;;;1.50;1.40;;;17.30;68.50;;;;;;6213369;23;20055;-69
2023/01/25 03:46:41;;;;;;;1.00;1.00;;;17.30;68.50;;;;;;6213279;23;20318;-70
2023/01/25 03:49:07;;;;;;;1.25;1.23;;;17.30;68.70;;;;;;6213216;23;20068;-70
2023/01/25 03:51:33;;;;;;;3.08;1.50;;;17.30;68.70;;;;;;6212971;23;20005;-70
2023/01/25 03:53:59;;;;;;;1.50;1.40;;;17.20;68.80;;;;;;6213252;23;20016;-70
2023/01/25 03:56:24;;;;;;;1.25;1.25;;;17.20;68.80;;;;;;6212911;23;20047;-70
2023/01/25 03:58:50;;;;;;;1.25;1.15;;;17.20;68.90;;;;;;6214619;23;20000;-70
2023/01/25 04:01:15;;;;;;;1.13;1.10;;;17.20;68.90;;;;;;6214377;23;20484;-70
2023/01/25 04:03:41;;;;;;;1.38;1.30;;;17.20;69.00;;;;;;6212871;23;20080;-70
2023/01/25 04:06:07;;;;;;;1.27;1.15;;;17.10;69.00;;;;;;6213412;23;19996;-70
2023/01/25 04:08:32;;;;;;;1.33;1.23;;;17.10;69.10;;;;;;6212970;23;20453;-70
2023/01/25 04:11:04;;;;;;;1.40;1.30;;;17.10;69.10;;;;;;6212863;23;20413;-70
2023/01/25 04:13:30;;;;;;;1.90;1.30;;;17.10;69.20;;;;;;6188583;23;20000;-70
2023/01/25 04:15:56;;;;;;;1.30;1.08;;;17.00;69.20;;;;;;6212869;23;20008;-70
2023/01/25 04:18:21;;;;;;;1.40;1.40;;;17.00;70.20;;;;;;6214370;23;20015;-70
2023/01/25 04:20:53;;;;;;;2.03;1.15;;;17.00;69.30;;;;;;6214507;23;20072;-69
2023/01/25 04:23:19;;;;;;;1.02;1.02;;;17.00;69.30;;;;;;6213062;23;20001;-69
2023/01/25 04:25:52;;;;;;;1.38;1.27;;;16.90;69.30;;;;;;6187578;23;20062;-70
2023/01/25 04:28:18;;;;;;;1.55;1.40;;;16.90;69.50;;;;;;6214702;23;20504;-69
2023/01/25 04:30:44;;;;;;;1.60;1.50;;;16.90;69.50;;;;;;6214319;23;20086;-70
2023/01/25 04:33:10;;;;;;;1.67;1.50;;;16.80;69.50;;;;;;6214501;23;20000;-69
2023/01/25 04:35:36;;;;;;;1.17;1.08;;;16.80;69.60;;;;;;6212959;23;20340;-69
2023/01/25 04:38:02;;;;;;;1.35;1.30;;;16.80;69.60;;;;;;6214162;23;20083;-69
2023/01/25 04:40:28;;;;;;;1.50;1.40;;;16.80;70.80;;;;;;6212603;23;20028;-69
2023/01/25 04:42:53;;;;;;;1.20;1.20;;;16.80;69.80;;;;;;6213114;23;20009;-69
2023/01/25 04:45:19;;;;;;;1.58;1.48;;;16.80;69.90;;;;;;6188031;23;19998;-69
2023/01/25 04:47:45;;;;;;;1.38;1.33;;;16.80;69.90;;;;;;6212895;23;20001;-69
2023/01/25 04:50:10;;;;;;;1.40;1.30;;;16.70;70.00;;;;;;6214296;23;20001;-69
2023/01/25 04:52:36;;;;;;;1.33;1.23;;;16.70;70.00;;;;;;6212719;23;20030;-69
2023/01/25 04:55:02;;;;;;;1.35;1.25;;;16.70;70.10;;;;;;6214225;23;20001;-69
2023/01/25 04:57:27;;;;;;;1.30;1.20;;;16.60;70.00;;;;;;6213024;23;20008;-70
2023/01/25 04:59:53;;;;;;;1.33;1.25;;;16.60;70.10;;;;;;6213986;23;20075;-70
2023/01/25 05:02:19;;;;;;;1.50;1.38;;;16.60;70.20;;;;;;6214348;23;20380;-70
2023/01/25 05:04:44;;;;;;;1.48;1.38;;;16.60;70.30;;;;;;6212719;23;20433;-70
2023/01/25 05:07:10;;;;;;;1.40;1.35;;;16.50;70.20;;;;;;6214333;23;20115;-70
2023/01/25 05:09:35;;;;;;;1.40;1.30;;;16.50;70.30;;;;;;6212593;23;20515;-70
2023/01/25 05:12:01;;;;;;;1.10;1.10;;;16.50;70.20;;;;;;6212856;23;20009;-70
2023/01/25 05:14:27;;;;;;;2.00;1.50;;;16.50;70.40;;;;;;6212515;23;20438;-70
2023/01/25 05:16:52;;;;;;;1.58;1.48;;;16.40;70.30;;;;;;6212711;23;20001;-69
2023/01/25 05:19:18;;;;;;;1.48;1.38;;;16.50;70.50;;;;;;6214174;23;20096;-69
2023/01/25 05:21:58;;;;;;;1.35;1.30;;;16.40;70.40;;;;;;6214145;23;20028;-69
2023/01/25 05:24:29;;;;;;;1.38;1.27;;;16.40;70.40;;;;;;6213864;23;20043;-70
2023/01/25 05:27:04;;;;;;;1.50;1.40;;;16.40;70.50;;;;;;6212651;23;20455;-70
2023/01/25 05:29:31;;;;;;;1.40;1.30;;;16.40;70.60;;;;;;6215282;23;20072;-70
2023/01/25 05:31:59;;;;;;;2.97;1.58;;;16.40;70.60;;;;;;6214523;23;20006;-70
2023/01/25 05:34:25;;;;;;;1.50;1.40;;;16.40;70.70;;;;;;6189642;23;20001;-70
2023/01/25 05:36:51;;;;;;;2.22;1.42;;;16.30;70.70;;;;;;6214587;23;20005;-70
2023/01/25 05:39:16;;;;;;;2.55;1.63;;;16.30;70.80;;;;;;6214113;23;20487;-70
2023/01/25 05:41:42;;;;;;;2.60;1.77;;;16.30;70.70;;;;;;6215708;23;20019;-70
2023/01/25 05:44:08;;;;;;;1.30;1.20;;;16.30;70.80;;;;;;6214710;23;20004;-70
2023/01/25 05:46:34;;;;;;;1.50;1.40;;;16.20;70.80;;;;;;6214259;23;20036;-70
2023/01/25 05:48:59;;;;;;;1.50;1.40;;;16.20;70.80;;;;;;6189454;23;20058;-70
2023/01/25 05:51:25;;;;;;;1.50;1.40;;;16.20;70.90;;;;;;6215876;23;20004;-70
2023/01/25 05:53:54;;;;;;;1.70;1.60;;;16.20;70.90;;;;;;6215488;23;20005;-70
2023/01/25 05:56:20;;;;;;;1.40;1.30;;;16.20;70.90;;;;;;6189699;23;20088;-70
2023/01/25 05:58:45;;;;;;;1.70;1.60;;;16.10;70.80;;;;;;6214271;23;20032;-70
2023/01/25 06:01:11;;;;;;;1.67;1.58;;;16.10;71.00;;;;;;6215588;23;20003;-70
2023/01/25 06:03:37;;;;;;;1.45;1.35;;;16.10;71.00;;;;;;6189256;23;20004;-70
2023/01/25 06:06:02;;;;;;;1.27;1.23;;;16.10;71.10;;;;;;6214222;23;19996;-70
2023/01/25 06:08:29;;;;;;;1.48;1.38;;;16.10;71.10;;;;;;6213930;23;20011;-70
2023/01/25 06:10:54;;;;;;;1.38;1.30;;;16.10;71.20;;;;;;6214285;23;20000;-70
2023/01/25 06:13:23;;;;;;;1.42;1.40;;;16.10;71.40;;;;;;6215616;23;20058;-70
2023/01/25 06:15:53;;;;;;;1.73;1.63;;;16.00;71.20;;;;;;6189594;23;20005;-70
2023/01/25 06:18:19;;;;;;;1.45;1.35;;;16.00;71.40;;;;;;6214109;23;20000;-70
2023/01/25 06:20:44;;;;;;;1.38;1.27;;;16.00;71.30;;;;;;6215512;23;20054;-70
2023/01/25 06:23:10;;;;;;;1.50;1.40;;;16.00;71.20;;;;;;6215250;23;20047;-70
2023/01/25 06:25:35;;;;;;;3.13;1.27;;;16.00;71.30;;;;;;6213837;23;20020;-70
2023/01/25 06:28:01;;;;;;;1.52;1.42;;;16.00;71.30;;;;;;6215357;23;19997;-70
2023/01/25 06:30:27;;;;;;;1.80;1.70;;;15.90;71.30;;;;;;6214104;23;20051;-70
2023/01/25 06:32:52;;;;;;;1.42;1.33;;;15.90;71.40;;;;;;6213969;23;20020;-70
2023/01/25 06:35:18;;;;;;;1.38;1.33;;;15.90;71.40;;;;;;6215294;23;20341;-69
2023/01/25 06:37:43;;;;;;;1.60;1.50;;;15.90;71.40;;;;;;6214975;23;20514;-70
2023/01/25 06:40:10;;;;;;;1.60;1.50;;;15.90;71.50;;;;;;6213633;23;20457;-70
2023/01/25 06:42:35;;;;;;;1.50;1.40;;;15.90;71.50;;;;;;6213546;23;20051;-70
2023/01/25 06:45:01;;;;;;;1.30;1.30;;;15.80;71.50;;;;;;6215225;23;20000;-70
2023/01/25 06:47:27;;;;;;;1.60;1.50;;;15.80;71.40;;;;;;6215420;23;20001;-69
2023/01/25 06:49:52;;;;;;;1.58;1.48;;;15.80;71.60;;;;;;6214729;23;20013;-69
2023/01/25 06:52:18;;;;;;;2.20;1.63;;;15.80;71.60;;;;;;6213815;23;20004;-69
2023/01/25 06:54:44;;;;;;;1.60;1.50;;;15.80;71.70;;;;;;6215668;23;20032;-69
2023/01/25 06:57:10;;;;;;;1.75;1.65;;;15.80;71.80;;;;;;6189287;23;20008;-69
2023/01/25 06:59:36;;;;;;;1.50;1.40;;;15.80;72.00;;;;;;6215527;23;20444;-68
2023/01/25 07:02:02;;;;;;;1.80;1.70;;;15.80;71.90;;;;;;6215602;23;20004;-69
2023/01/25 07:04:27;;;;;;;2.70;1.58;;;15.80;71.90;;;;;;6215403;23;20072;-69
2023/01/25 07:06:53;;;;;;;1.67;1.33;;;15.70;72.00;;;;;;6213987;23;20371;-69
2023/01/25 07:09:23;;;;;;;3.83;1.80;;;15.70;72.00;;;;;;6215718;23;20444;-70
2023/01/25 07:11:49;;;;;;;1.80;1.70;;;15.70;72.10;;;;;;6215416;23;20027;-70
2023/01/25 07:14:15;;;;;;;1.95;1.85;;;15.70;72.10;;;;;;6213012;23;20004;-71
2023/01/25 07:16:41;;;;;;;2.08;1.98;;;15.70;71.00;;;;;;6188829;23;20015;-71
2023/01/25 07:19:08;;;;;;;2.10;2.00;;;15.60;70.40;;;;;;6188837;23;20321;-70
2023/01/25 07:21:34;;;;;;;2.58;2.38;;;15.60;69.90;;;;;;6189186;23;20008;-70
2023/01/25 07:24:02;;;;;;;2.67;2.47;;;15.60;69.50;;;;;;6213708;23;20016;-70
2023/01/25 07:26:28;;;;;;;2.60;2.40;;;15.60;70.20;;;;;;6213993;23;19996;-71
2023/01/25 07:28:55;;;;;;;2.85;2.65;;;15.60;69.00;;;;;;6188726;23;20009;-71
2023/01/25 07:31:20;;;;;;;2.78;2.58;;;15.60;68.80;;;;;;6214108;23;20016;-71
2023/01/25 07:33:50;;;;;;;2.75;2.55;;;15.50;68.50;;;;;;6213303;23;20005;-71
2023/01/25 07:36:16;;;;;;;2.78;2.58;;;15.50;68.50;;;;;;6189548;23;20027;-71
2023/01/25 07:38:42;;;;;;;3.10;2.80;;;15.50;68.40;;;;;;6213702;23;20329;-71
2023/01/25 07:41:07;;;;;;;2.90;2.70;;;15.50;68.30;;;;;;6215196;23;20028;-71
2023/01/25 07:43:33;;;;;;;2.80;2.60;;;15.50;68.30;;;;;;6213839;23;20429;-71
2023/01/25 07:46:03;;;;;;;3.08;2.88;;;15.50;68.20;;;;;;6213658;23;20023;-71
2023/01/25 07:48:29;;;;;;;3.08;2.88;;;15.40;68.00;;;;;;6213516;23;20084;-71
2023/01/25 07:53:45;;;;;;;21.83;5.40;;;15.40;67.90;;;;;;6192973;23;20058;-70
2023/01/25 07:56:11;;;;;;;15.63;5.28;;;15.40;68.50;;;;;;6215426;23;20071;-71
2023/01/25 07:58:36;;;;;;;20.02;5.05;;;15.40;68.80;;;;;;6214802;23;20123;-71
2023/01/25 08:01:07;;;;;;;14.63;5.47;;;15.40;69.00;;;;;;6212768;23;20008;-71
2023/01/25 08:03:32;;;;;;;15.13;5.78;;;15.40;69.40;;;;;;6187078;23;20011;-71
2023/01/25 08:05:58;;;;;;;17.65;5.55;;;15.40;69.60;;;;;;6187814;23;20004;-71
2023/01/25 08:08:23;;;;;;;14.68;5.28;;;15.40;69.70;;;;;;6213056;23;20059;-71
2023/01/25 08:10:49;;;;;;;14.40;4.97;;;15.40;69.60;;;;;;6214331;23;20012;-71
2023/01/25 08:13:15;;;;;;;14.98;6.03;;;15.40;69.60;;;;;;6212743;23;20007;-71
2023/01/25 08:15:41;;;;;;;14.88;4.65;;;15.40;69.50;;;;;;6211684;23;20012;-71
2023/01/25 08:18:06;;;;;;;16.90;5.20;;;15.30;69.40;;;;;;6213176;23;20001;-71
2023/01/25 08:20:32;;;;;;;12.15;5.10;;;15.30;69.40;;;;;;6214458;23;20059;-71
2023/01/25 08:22:57;;;;;;;10.68;4.88;;;15.30;69.70;;;;;;6212975;23;20376;-71
2023/01/25 08:25:23;;;;;;;10.00;4.38;;;15.30;69.30;;;;;;6213025;23;20039;-71
2023/01/25 08:27:50;;;;;;;12.70;4.65;;;15.30;69.40;;;;;;6212737;23;20033;-71
2023/01/25 08:30:16;;;;;;;15.77;4.90;;;15.30;69.30;;;;;;6212995;23;20326;-71
2023/01/25 08:32:42;;;;;;;10.73;4.43;;;15.30;69.20;;;;;;6214166;23;20464;-71
2023/01/25 08:35:08;;;;;;;8.55;4.53;;;15.20;69.20;;;;;;6214410;23;20008;-71
2023/01/25 08:37:33;;;;;;;9.15;4.68;;;15.30;69.20;;;;;;6213082;23;20012;-71
2023/01/25 08:39:59;;;;;;;12.48;4.88;;;15.30;69.20;;;;;;6212789;23;19997;-71
2023/01/25 08:42:25;;;;;;;9.25;5.18;;;15.20;69.20;;;;;;6214367;23;20000;-71
2023/01/25 08:44:50;;;;;;;9.13;4.32;;;15.20;69.20;;;;;;6188086;23;19997;-71
2023/01/25 08:47:16;;;;;;;12.70;4.93;;;15.20;69.30;;;;;;6187754;23;20024;-71
2023/01/25 08:49:42;;;;;;;9.93;4.60;;;15.20;69.30;;;;;;6214521;23;20005;-72
2023/01/25 08:52:07;;;;;;;9.77;4.70;;;15.20;69.30;;;;;;6212622;23;20329;-71
2023/01/25 08:54:33;;;;;;;9.35;4.68;;;15.20;69.30;;;;;;6212966;23;20072;-71
2023/01/25 08:57:00;;;;;;;8.90;4.18;;;15.20;69.30;;;;;;6214355;23;20076;-71
2023/01/25 08:59:25;;;;;;;8.90;4.45;;;15.20;69.30;;;;;;6188000;23;20092;-71
2023/01/25 09:01:51;;;;;;;8.90;4.20;;;15.10;69.30;;;;;;6213754;23;20028;-71
2023/01/25 09:04:17;;;;;;;10.45;4.45;;;15.20;69.40;;;;;;6213707;23;20100;-71
2023/01/25 09:06:43;;;;;;;7.57;4.35;;;15.10;69.40;;;;;;6216661;23;20051;-71
2023/01/25 09:09:10;;;;;;;8.00;4.18;;;15.10;69.40;;;;;;6214761;23;20084;-71
2023/01/25 09:11:36;;;;;;;7.38;4.28;;;15.10;69.40;;;;;;6214959;23;20068;-71
2023/01/25 09:14:02;;;;;;;6.90;4.20;;;15.10;69.40;;;;;;6215979;23;20011;-71
2023/01/25 09:16:29;;;;;;;6.05;4.60;;;15.10;69.40;;;;;;6214667;23;20005;-71
2023/01/25 09:18:59;;;;;;;7.47;4.72;;;15.10;69.40;;;;;;6216047;23;20004;-71
2023/01/25 09:21:25;;;;;;;6.90;4.47;;;15.10;69.50;;;;;;6190041;23;20500;-71
2023/01/25 09:23:51;;;;;;;7.43;4.53;;;15.10;69.50;;;;;;6189211;23;20037;-71
2023/01/25 09:26:17;;;;;;;7.93;4.07;;;15.10;69.50;;;;;;6189767;23;20028;-71
2023/01/25 09:28:46;;;;;;;5.80;3.90;;;15.10;69.50;;;;;;6214590;23;20000;-71
2023/01/25 09:31:11;;;;;;;7.60;4.07;;;15.00;69.50;;;;;;6189378;23;20000;-71
2023/01/25 09:33:38;;;;;;;7.03;4.20;;;15.00;69.50;;;;;;6214553;23;20012;-71
2023/01/25 09:36:04;;;;;;;8.05;4.20;;;15.00;69.50;;;;;;6214487;23;20004;-72
2023/01/25 09:38:30;;;;;;;5.72;4.20;;;15.00;69.50;;;;;;6214357;23;20011;-71
2023/01/25 09:41:19;;;;;;;5.05;4.25;;;15.00;69.50;;;;;;6215912;23;20072;-71
2023/01/25 09:44:26;;;;;;;4.63;3.60;;;15.00;69.50;;;;;;6215774;23;20000;-71
2023/01/25 09:46:57;;;;;;;5.00;3.45;;;15.00;69.50;;;;;;6157005;23;20001;-71
2023/01/25 09:50:00;;;;;;;4.47;3.83;;;15.00;69.50;;;;;;6190089;23;20023;-71
2023/01/25 09:53:03;;;;;;;5.90;3.75;;;15.00;69.50;;;;;;6215748;23;20005;-71
2023/01/25 09:55:29;;;;;;;4.82;3.78;;;14.90;69.50;;;;;;6215855;23;20004;-71
2023/01/25 09:57:55;;;;;;;7.10;3.33;;;15.00;69.50;;;;;;6214290;23;20079;-71
2023/01/25 10:00:27;;;;;;;5.15;4.13;;;15.00;69.60;;;;;;6189135;23;20000;-71
2023/01/25 10:02:58;;;;;;;4.83;3.43;;;15.00;69.60;;;;;;6214291;23;20001;-71
2023/01/25 10:05:33;;;;;;;4.35;3.33;;;14.90;69.60;;;;;;6190181;23;20001;-71
2023/01/25 10:08:10;;;;;;;4.30;3.60;;;14.90;69.50;;;;;;6214178;23;20437;-71
2023/01/25 10:10:38;;;;;;;5.47;3.63;;;14.90;69.50;;;;;;6214092;23;20011;-71
2023/01/25 10:13:07;;;;;;;5.65;3.42;;;14.90;69.50;;;;;;6188765;23;20396;-71
2023/01/25 10:15:42;;;;;;;5.03;3.67;;;14.90;69.50;;;;;;6189657;23;20024;-71
2023/01/25 10:18:33;;;;;;;6.63;3.78;;;14.90;69.50;;;;;;6189587;23;20047;-71
2023/01/25 10:21:16;;;;;;;4.10;3.13;;;14.90;69.50;;;;;;6214171;23;19997;-71
2023/01/25 10:23:51;;;;;;;4.80;3.42;;;14.90;69.50;;;;;;6165140;23;20471;-71
2023/01/25 10:26:28;;;;;;;4.03;3.63;;;14.90;69.50;;;;;;6215432;23;20001;-71
2023/01/25 10:29:12;;;;;;;4.53;3.72;;;14.90;69.50;;;;;;6189183;23;20008;-72
2023/01/25 10:31:38;;;;;;;4.43;3.40;;;14.90;69.50;;;;;;6215571;23;20022;-72
2023/01/25 10:34:19;;;;;;;4.20;3.67;;;14.80;69.40;;;;;;6215175;23;20058;-72
2023/01/25 10:36:46;;;;;;;3.03;2.72;;;14.80;69.40;;;;;;6190607;23;20009;-72
2023/01/25 10:39:12;;;;;;;3.83;3.13;;;14.90;69.50;;;;;;6188972;23;20072;-72
2023/01/25 10:41:43;;;;;;;3.47;3.17;;;14.80;69.40;;;;;;6213999;23;20016;-72
2023/01/25 10:44:26;;;;;;;4.60;2.92;;;14.80;69.40;;;;;;6213646;23;20019;-72
2023/01/25 10:47:14;;;;;;;3.58;2.80;;;14.80;69.40;;;;;;6192412;23;20001;-72
2023/01/25 10:49:39;;;;;;;2.65;2.45;;;14.80;69.40;;;;;;6215203;23;20004;-72
2023/01/25 10:52:15;;;;;;;3.38;3.03;;;14.80;69.40;;;;;;6215095;23;20026;-72
2023/01/25 10:54:41;;;;;;;3.08;2.70;;;14.80;69.40;;;;;;6215263;23;20055;-72
2023/01/25 10:57:07;;;;;;;3.25;2.80;;;14.80;69.30;;;;;;6163515;23;20008;-72
2023/01/25 10:59:33;;;;;;;3.38;3.03;;;14.80;69.30;;;;;;6188936;23;20024;-72
2023/01/25 11:02:24;;;;;;;4.20;3.25;;;14.80;69.30;;;;;;6188680;23;20436;-72
2023/01/25 11:04:50;;;;;;;3.33;3.00;;;14.70;69.20;;;;;;6215158;23;20000;-72
2023/01/25 11:07:26;;;;;;;4.70;2.70;;;14.80;69.30;;;;;;6213631;23;20023;-72
2023/01/25 11:09:52;;;;;;;2.70;2.50;;;14.80;69.30;;;;;;6213723;23;20011;-72
2023/01/25 11:12:19;;;;;;;3.55;2.35;;;14.70;69.20;;;;;;6213292;23;20005;-72
2023/01/25 11:14:48;;;;;;;4.63;2.53;;;14.70;69.20;;;;;;6213535;23;20034;-72
2023/01/25 11:17:30;;;;;;;2.78;2.40;;;14.70;69.20;;;;;;6189165;23;20492;-72
2023/01/25 11:20:15;;;;;;;3.67;2.50;;;14.70;69.10;;;;;;6213437;23;20004;-72
2023/01/25 11:22:55;;;;;;;2.63;2.42;;;14.70;69.20;;;;;;6213429;23;20011;-72
2023/01/25 11:25:24;;;;;;;2.78;2.30;;;14.70;69.20;;;;;;6188217;23;20013;-72
2023/01/25 11:27:49;;;;;;;2.95;2.35;;;14.70;69.10;;;;;;6214320;23;19997;-72
2023/01/25 11:30:17;;;;;;;4.32;2.42;;;14.70;69.10;;;;;;6214769;23;20012;-72
2023/01/25 11:32:44;;;;;;;2.55;2.35;;;14.70;69.10;;;;;;6213701;23;20024;-72
2023/01/25 11:35:14;;;;;;;2.40;2.20;;;14.70;69.10;;;;;;6213156;23;20010;-72
2023/01/25 11:37:46;;;;;;;2.97;2.50;;;14.70;69.10;;;;;;6215050;23;20437;-72
2023/01/25 11:40:17;;;;;;;2.42;2.22;;;14.70;69.10;;;;;;6187970;23;20464;-72
2023/01/25 11:43:02;;;;;;;2.42;2.03;;;14.70;69.10;;;;;;6214910;23;19997;-72
2023/01/25 11:45:44;;;;;;;2.67;2.10;;;14.70;69.10;;;;;;6189531;23;19997;-72
2023/01/25 11:48:47;;;;;;;3.00;2.23;;;14.70;69.10;;;;;;6213440;23;20028;-72
2023/01/25 11:51:32;;;;;;;3.38;2.30;;;14.70;69.10;;;;;;6214755;23;20007;-72
2023/01/25 11:54:16;;;;;;;2.15;2.00;;;14.60;69.00;;;;;;6212997;23;20036;-72
2023/01/25 11:57:00;;;;;;;2.13;2.03;;;14.60;69.00;;;;;;6214497;23;20353;-72
2023/01/25 11:59:38;;;;;;;2.42;2.22;;;14.70;69.10;;;;;;6214568;23;20079;-72
2023/01/25 12:03:01;;;;;;;1.92;1.83;;;14.70;69.00;;;;;;6189269;23;20000;-72
2023/01/25 12:05:35;;;;;;;3.13;1.77;;;14.60;69.00;;;;;;6093448;23;20073;-72
2023/01/25 12:08:11;;;;;;;2.35;2.15;;;14.60;69.00;;;;;;6046077;23;20006;-72
2023/01/25 12:11:09;;;;;;;1.85;1.75;;;14.60;69.00;;;;;;6069150;23;20387;-72
2023/01/25 12:13:45;;;;;;;2.00;1.90;;;14.60;69.00;;;;;;6085672;23;20006;-72
2023/01/25 12:16:33;;;;;;;2.33;1.90;;;14.60;69.00;;;;;;6070842;23;20078;-72
2023/01/25 12:19:19;;;;;;;2.33;2.13;;;14.60;69.00;;;;;;6069545;23;20010;-72
2023/01/25 12:21:59;;;;;;;2.03;1.70;;;14.60;69.00;;;;;;6093584;23;20017;-72
2023/01/25 12:24:51;;;;;;;1.70;1.60;;;14.60;69.00;;;;;;6070619;23;20015;-72
2023/01/25 12:27:35;;;;;;;2.25;1.80;;;14.60;68.90;;;;;;6071589;23;20010;-72
2023/01/25 12:30:28;;;;;;;1.67;1.58;;;14.60;69.00;;;;;;6093286;23;20051;-72
2023/01/25 12:32:58;;;;;;;1.80;1.70;;;14.60;69.00;;;;;;6069901;23;20093;-72
2023/01/25 12:35:39;;;;;;;1.70;1.60;;;14.50;68.90;;;;;;6089115;23;20429;-72
2023/01/25 12:38:31;;;;;;;1.52;1.42;;;14.60;68.90;;;;;;6190803;23;20055;-72
2023/01/25 12:41:03;;;;;;;1.73;1.63;;;14.60;69.00;;;;;;6216540;23;20005;-72
2023/01/25 12:43:40;;;;;;;1.83;1.67;;;14.60;68.90;;;;;;6165345;23;20345;-72
2023/01/25 12:46:15;;;;;;;1.50;1.40;;;14.50;68.90;;;;;;6190964;23;20012;-72
2023/01/25 12:48:46;;;;;;;1.92;1.80;;;14.50;68.80;;;;;;6215072;23;20536;-72
2023/01/25 12:51:12;;;;;;;1.75;1.65;;;14.50;68.80;;;;;;6214842;23;20000;-72
2023/01/25 12:53:39;;;;;;;1.60;1.50;;;14.50;68.80;;;;;;6190033;23;20069;-72
2023/01/25 12:56:12;;;;;;;1.50;1.40;;;14.50;68.80;;;;;;6214970;23;20417;-72
2023/01/25 12:58:46;;;;;;;1.70;1.40;;;14.50;68.80;;;;;;6190584;23;20095;-72